createdAt,value
2019-05-06T00:00:08.066Z,8.91
2019-05-06T00:01:45.457Z,8.92
2019-05-06T00:03:21.891Z,8.93
2019-05-06T00:04:58.485Z,8.94
2019-05-06T00:06:34.789Z,8.94
2019-05-06T00:08:10.362Z,8.95
2019-05-06T00:09:46.120Z,8.94
2019-05-06T00:11:23.847Z,8.95
2019-05-06T00:12:59.678Z,8.96
2019-05-06T00:14:35.202Z,8.96
2019-05-06T00:16:10.788Z,8.97
2019-05-06T00:17:46.299Z,8.96
2019-05-06T00:19:24.497Z,8.97
2019-05-06T00:20:59.484Z,8.99
2019-05-06T00:22:34.987Z,9.00
2019-05-06T00:24:10.569Z,9.01
2019-05-06T00:26:04.131Z,9.02
2019-05-06T00:27:57.585Z,9.03
2019-05-06T00:29:34.935Z,9.01
2019-05-06T00:31:15.931Z,8.99
2019-05-06T00:32:49.227Z,9.01
2019-05-06T00:34:24.720Z,9.03
2019-05-06T00:36:00.645Z,9.05
2019-05-06T00:37:36.426Z,9.06
2019-05-06T00:39:14.920Z,9.06
2019-05-06T00:41:04.420Z,9.08
2019-05-06T00:42:41.575Z,9.09
2019-05-06T00:44:17.145Z,9.07
2019-05-06T00:45:53.662Z,9.07
2019-05-06T00:47:29.423Z,9.10
2019-05-06T00:49:04.908Z,9.12
2019-05-06T00:50:40.429Z,9.14
2019-05-06T00:52:15.944Z,9.18
2019-05-06T00:53:55.891Z,9.19
2019-05-06T00:55:33.634Z,9.20
2019-05-06T00:57:08.609Z,9.20
2019-05-06T00:58:44.110Z,9.21
2019-05-06T01:00:24.417Z,9.21
2019-05-06T01:02:00.064Z,9.21
2019-05-06T01:03:35.589Z,9.22
2019-05-06T01:05:13.407Z,9.21
2019-05-06T01:06:51.523Z,9.21
2019-05-06T01:08:27.952Z,9.22
2019-05-06T01:10:04.136Z,9.20
2019-05-06T01:11:40.797Z,9.21
2019-05-06T01:13:28.086Z,9.21
2019-05-06T01:15:06.809Z,9.21
2019-05-06T01:16:43.967Z,9.19
2019-05-06T01:18:21.223Z,9.18
2019-05-06T01:19:56.752Z,9.18
2019-05-06T01:21:34.133Z,9.19
2019-05-06T01:23:09.485Z,9.21
2019-05-06T01:24:45.056Z,9.22
2019-05-06T01:26:20.580Z,9.22
2019-05-06T01:27:56.092Z,9.24
2019-05-06T01:29:31.613Z,9.25
2019-05-06T01:31:08.959Z,9.26
2019-05-06T01:32:44.468Z,9.27
2019-05-06T01:34:19.978Z,9.27
2019-05-06T01:35:55.503Z,9.29
2019-05-06T01:37:31.486Z,9.29
2019-05-06T01:39:19.286Z,9.29
2019-05-06T01:40:56.503Z,9.30
2019-05-06T01:42:49.441Z,9.28
2019-05-06T01:44:24.966Z,9.26
2019-05-06T01:46:01.448Z,9.21
2019-05-06T01:47:36.966Z,9.21
2019-05-06T01:49:13.780Z,9.21
2019-05-06T01:50:49.637Z,9.20
2019-05-06T01:52:25.156Z,9.19
2019-05-06T01:54:00.684Z,9.18
2019-05-06T01:55:36.183Z,9.17
2019-05-06T01:57:13.590Z,9.16
2019-05-06T01:58:53.454Z,9.16
2019-05-06T02:00:28.529Z,9.14
2019-05-06T02:02:04.662Z,9.12
2019-05-06T02:03:40.263Z,9.12
2019-05-06T02:05:15.757Z,9.10
2019-05-06T02:06:51.507Z,9.08
2019-05-06T02:08:27.080Z,9.07
2019-05-06T02:10:03.947Z,9.04
2019-05-06T02:11:39.637Z,9.02
2019-05-06T02:13:15.181Z,9.01
2019-05-06T02:14:51.022Z,9.00
2019-05-06T02:16:27.398Z,8.99
2019-05-06T02:18:10.542Z,8.98
2019-05-06T02:19:44.694Z,8.97
2019-05-06T02:21:26.501Z,8.96
2019-05-06T02:23:04.162Z,8.94
2019-05-06T02:24:43.987Z,8.91
2019-05-06T02:26:19.626Z,8.89
2019-05-06T02:27:55.157Z,8.84
2019-05-06T02:29:36.947Z,8.84
2019-05-06T02:31:30.193Z,8.83
2019-05-06T02:33:10.046Z,8.78
2019-05-06T02:34:54.685Z,8.72
2019-05-06T02:36:37.854Z,8.69
2019-05-06T02:38:39.249Z,8.65
2019-05-06T02:40:25.056Z,8.60
2019-05-06T02:41:59.893Z,8.55
2019-05-06T02:43:35.396Z,8.49
2019-05-06T02:45:12.713Z,8.50
2019-05-06T02:46:53.157Z,8.50
2019-05-06T02:48:43.281Z,8.49
2019-05-06T02:50:23.930Z,8.47
2019-05-06T02:52:02.795Z,8.43
2019-05-06T02:53:36.934Z,8.40
2019-05-06T02:55:13.043Z,8.39
2019-05-06T02:56:48.601Z,8.37
2019-05-06T02:58:27.608Z,8.37
2019-05-06T03:00:05.024Z,8.34
2019-05-06T03:01:43.208Z,8.32
2019-05-06T03:03:23.263Z,8.29
2019-05-06T03:04:58.636Z,8.27
2019-05-06T03:06:34.137Z,8.26
2019-05-06T03:08:13.182Z,8.23
2019-05-06T03:09:46.853Z,8.22
2019-05-06T03:11:24.026Z,8.20
2019-05-06T03:12:59.740Z,8.17
2019-05-06T03:14:35.250Z,8.15
2019-05-06T03:16:13.913Z,8.12
2019-05-06T03:17:48.038Z,8.09
2019-05-06T03:19:24.959Z,8.06
2019-05-06T03:21:03.879Z,8.06
2019-05-06T03:22:43.619Z,8.04
2019-05-06T03:24:17.960Z,8.03
2019-05-06T03:25:54.099Z,8.02
2019-05-06T03:27:32.663Z,8.00
2019-05-06T03:29:06.837Z,8.00
2019-05-06T03:30:45.985Z,7.98
2019-05-06T03:32:24.694Z,7.96
2019-05-06T03:34:22.247Z,7.94
2019-05-06T03:35:49.962Z,7.92
2019-05-06T03:37:16.216Z,7.91
2019-05-06T03:38:48.438Z,7.89
2019-05-06T03:40:23.948Z,7.88
2019-05-06T03:41:59.446Z,7.87
2019-05-06T03:43:34.974Z,7.86
2019-05-06T03:45:13.179Z,7.86
2019-05-06T03:47:08.865Z,7.86
2019-05-06T03:48:48.920Z,7.86
2019-05-06T03:50:24.688Z,7.83
2019-05-06T03:52:02.547Z,7.83
2019-05-06T03:53:37.456Z,7.83
2019-05-06T03:55:13.800Z,7.84
2019-05-06T03:56:53.772Z,7.85
2019-05-06T03:58:34.599Z,7.85
2019-05-06T04:00:15.915Z,7.87
2019-05-06T04:01:53.298Z,7.88
2019-05-06T04:03:42.451Z,7.87
2019-05-06T04:05:06.098Z,7.89
2019-05-06T04:06:43.627Z,7.88
2019-05-06T04:08:20.455Z,7.90
2019-05-06T04:09:57.248Z,7.94
2019-05-06T04:11:35.969Z,7.97
2019-05-06T04:13:13.437Z,7.99
2019-05-06T04:14:49.577Z,8.02
2019-05-06T04:16:30.430Z,8.03
2019-05-06T04:18:12.399Z,8.06
2019-05-06T04:19:53.527Z,8.08
2019-05-06T04:21:45.678Z,8.09
2019-05-06T04:23:38.192Z,8.13
2019-05-06T04:25:18.994Z,8.15
2019-05-06T04:27:16.557Z,8.16
2019-05-06T04:28:53.460Z,8.20
2019-05-06T04:30:29.208Z,8.21
2019-05-06T04:32:06.073Z,8.24
2019-05-06T04:33:46.112Z,8.30
2019-05-06T04:35:19.143Z,8.33
2019-05-06T04:36:54.950Z,8.36
2019-05-06T04:38:33.507Z,8.41
2019-05-06T04:40:09.009Z,8.45
2019-05-06T04:41:44.794Z,8.48
2019-05-06T04:43:26.242Z,8.53
2019-05-06T04:44:57.806Z,8.56
2019-05-06T04:46:34.886Z,8.59
2019-05-06T04:48:14.447Z,8.63
2019-05-06T04:49:48.709Z,8.66
2019-05-06T04:51:24.968Z,8.69
2019-05-06T04:53:05.136Z,8.72
2019-05-06T04:54:43.926Z,8.75
2019-05-06T04:56:18.467Z,8.78
2019-05-06T04:57:55.165Z,8.81
2019-05-06T04:59:32.592Z,8.84
2019-05-06T05:01:11.903Z,8.87
2019-05-06T05:02:46.414Z,8.90
2019-05-06T05:04:31.054Z,8.93
2019-05-06T05:06:01.978Z,8.97
2019-05-06T05:07:37.241Z,9.01
2019-05-06T05:09:17.165Z,9.03
2019-05-06T05:10:53.359Z,9.07
2019-05-06T05:12:33.799Z,9.10
2019-05-06T05:14:13.882Z,9.13
2019-05-06T05:15:57.215Z,9.16
2019-05-06T05:17:37.302Z,9.19
2019-05-06T05:19:15.197Z,9.21
2019-05-06T05:20:52.735Z,9.24
2019-05-06T05:22:28.899Z,9.27
2019-05-06T05:24:04.482Z,9.32
2019-05-06T05:25:40.004Z,9.37
2019-05-06T05:27:15.575Z,9.42
2019-05-06T05:28:53.187Z,9.47
2019-05-06T05:30:28.598Z,9.51
2019-05-06T05:32:04.275Z,9.57
2019-05-06T05:33:42.158Z,9.62
2019-05-06T05:35:19.297Z,9.66
2019-05-06T05:36:54.651Z,9.70
2019-05-06T05:38:32.072Z,9.73
2019-05-06T05:40:07.628Z,9.78
2019-05-06T05:41:43.193Z,9.82
2019-05-06T05:43:24.288Z,9.87
2019-05-06T05:45:02.507Z,9.90
2019-05-06T05:46:39.412Z,9.96
2019-05-06T05:48:23.550Z,10.00
2019-05-06T05:50:09.499Z,10.05
2019-05-06T05:51:45.020Z,10.10
2019-05-06T05:53:22.437Z,10.17
2019-05-06T05:54:58.062Z,10.24
2019-05-06T05:56:33.624Z,10.33
2019-05-06T05:58:09.428Z,10.40
2019-05-06T05:59:45.269Z,10.48
2019-05-06T06:01:23.203Z,10.57
2019-05-06T06:02:58.422Z,10.67
2019-05-06T06:04:33.981Z,10.74
2019-05-06T06:06:09.505Z,10.83
2019-05-06T06:07:45.023Z,10.91
2019-05-06T06:09:22.354Z,10.97
2019-05-06T06:11:16.047Z,11.04
2019-05-06T06:12:54.691Z,11.11
2019-05-06T06:14:43.771Z,11.18
2019-05-06T06:16:20.837Z,11.27
2019-05-06T06:18:14.190Z,11.39
2019-05-06T06:19:53.327Z,11.61
2019-05-06T06:21:33.541Z,11.85
2019-05-06T06:23:10.775Z,12.12
2019-05-06T06:24:46.287Z,12.39
2019-05-06T06:26:23.097Z,12.68
2019-05-06T06:27:58.603Z,12.98
2019-05-06T06:29:34.135Z,13.27
2019-05-06T06:31:17.209Z,13.56
2019-05-06T06:32:53.201Z,13.85
2019-05-06T06:34:46.304Z,14.16
2019-05-06T06:36:29.487Z,14.45
2019-05-06T06:38:09.621Z,14.74
2019-05-06T06:39:46.857Z,15.02
2019-05-06T06:41:22.895Z,15.31
2019-05-06T06:43:02.026Z,15.59
2019-05-06T06:44:37.384Z,15.85
2019-05-06T06:46:12.916Z,16.12
2019-05-06T06:47:49.198Z,16.36
2019-05-06T06:49:24.712Z,16.62
2019-05-06T06:51:00.271Z,16.86
2019-05-06T06:52:35.764Z,17.09
2019-05-06T06:54:12.301Z,17.33
2019-05-06T06:55:48.048Z,17.53
2019-05-06T06:57:25.936Z,17.74
2019-05-06T06:59:19.573Z,17.92
2019-05-06T07:01:16.397Z,18.08
2019-05-06T07:02:53.674Z,18.28
2019-05-06T07:04:36.629Z,18.45
2019-05-06T07:06:14.969Z,18.63
2019-05-06T07:07:52.937Z,18.81
2019-05-06T07:09:29.733Z,18.96
2019-05-06T07:11:05.405Z,19.09
2019-05-06T07:12:42.703Z,19.25
2019-05-06T07:14:18.578Z,19.42
2019-05-06T07:15:54.428Z,19.56
2019-05-06T07:17:32.654Z,19.71
2019-05-06T07:19:07.833Z,19.86
2019-05-06T07:20:52.560Z,19.98
2019-05-06T07:22:29.539Z,20.12
2019-05-06T07:24:05.193Z,20.24
2019-05-06T07:25:42.909Z,20.36
2019-05-06T07:27:19.603Z,20.47
2019-05-06T07:28:55.344Z,20.60
2019-05-06T07:30:34.222Z,20.78
2019-05-06T07:32:09.757Z,20.93
2019-05-06T07:33:45.828Z,21.08
2019-05-06T07:35:22.557Z,21.17
2019-05-06T07:36:58.684Z,21.20
2019-05-06T07:38:34.790Z,21.18
2019-05-06T07:40:12.418Z,21.18
2019-05-06T07:41:53.508Z,21.22
2019-05-06T07:43:42.842Z,21.25
2019-05-06T07:45:29.070Z,21.26
2019-05-06T07:47:06.333Z,21.29
2019-05-06T07:48:42.867Z,21.32
2019-05-06T07:50:18.486Z,21.39
2019-05-06T07:51:55.035Z,21.49
2019-05-06T07:53:32.114Z,21.60
2019-05-06T07:55:07.862Z,21.72
2019-05-06T07:56:43.387Z,21.83
2019-05-06T07:58:18.916Z,21.90
2019-05-06T07:59:55.682Z,21.97
2019-05-06T08:01:33.263Z,22.03
2019-05-06T08:03:08.718Z,22.05
2019-05-06T08:04:44.256Z,22.14
2019-05-06T08:06:19.749Z,22.26
2019-05-06T08:07:55.560Z,22.39
2019-05-06T08:09:32.614Z,22.46
2019-05-06T08:11:08.215Z,22.44
2019-05-06T08:12:43.727Z,22.37
2019-05-06T08:14:19.262Z,22.27
2019-05-06T08:15:54.903Z,22.24
2019-05-06T08:17:33.125Z,22.24
2019-05-06T08:19:08.894Z,22.30
2019-05-06T08:20:44.665Z,22.37
2019-05-06T08:22:37.636Z,22.52
2019-05-06T08:24:13.146Z,22.63
2019-05-06T08:25:57.647Z,22.70
2019-05-06T08:27:29.906Z,22.69
2019-05-06T08:29:05.444Z,22.61
2019-05-06T08:30:43.035Z,22.51
2019-05-06T08:32:18.432Z,22.44
2019-05-06T08:33:54.257Z,22.49
2019-05-06T08:35:29.846Z,22.51
2019-05-06T08:37:09.406Z,22.48
2019-05-06T08:38:58.413Z,22.42
2019-05-06T08:40:33.916Z,22.35
2019-05-06T08:42:09.493Z,22.19
2019-05-06T08:43:45.063Z,22.01
2019-05-06T08:45:22.028Z,21.85
2019-05-06T08:46:58.177Z,21.73
2019-05-06T08:48:33.958Z,21.57
2019-05-06T08:50:12.817Z,21.38
2019-05-06T08:51:52.926Z,21.14
2019-05-06T08:53:30.465Z,20.91
2019-05-06T08:55:07.559Z,20.71
2019-05-06T08:56:43.149Z,20.53
2019-05-06T08:58:18.687Z,20.33
2019-05-06T08:59:54.214Z,20.17
2019-05-06T09:01:37.370Z,19.99
2019-05-06T09:03:14.304Z,19.84
2019-05-06T09:04:51.824Z,19.65
2019-05-06T09:06:31.503Z,19.50
2019-05-06T09:08:05.488Z,19.40
2019-05-06T09:09:42.119Z,19.32
2019-05-06T09:11:19.426Z,19.24
2019-05-06T09:12:54.950Z,19.15
2019-05-06T09:14:32.727Z,19.03
2019-05-06T09:16:07.729Z,18.94
2019-05-06T09:17:43.251Z,18.83
2019-05-06T09:19:18.799Z,18.77
2019-05-06T09:20:54.317Z,18.76
2019-05-06T09:22:32.432Z,18.75
2019-05-06T09:24:07.122Z,18.72
2019-05-06T09:25:42.632Z,18.68
2019-05-06T09:27:22.612Z,18.61
2019-05-06T09:29:03.340Z,18.54
2019-05-06T09:30:43.237Z,18.47
2019-05-06T09:32:23.321Z,18.56
2019-05-06T09:34:02.728Z,18.63
2019-05-06T09:35:37.693Z,18.66
2019-05-06T09:37:14.475Z,18.72
2019-05-06T09:38:52.511Z,18.90
2019-05-06T09:40:27.557Z,19.36
2019-05-06T09:42:03.083Z,19.85
2019-05-06T09:43:38.604Z,20.13
2019-05-06T09:45:14.267Z,20.25
2019-05-06T09:46:49.806Z,20.29
2019-05-06T09:48:43.026Z,20.20
2019-05-06T09:50:32.451Z,20.08
2019-05-06T09:52:07.973Z,19.87
2019-05-06T09:54:03.957Z,19.69
2019-05-06T09:55:56.057Z,19.58
2019-05-06T09:57:49.249Z,19.41
2019-05-06T09:59:24.844Z,19.27
2019-05-06T10:01:02.633Z,19.11
2019-05-06T10:02:39.354Z,18.98
2019-05-06T10:04:14.925Z,18.86
2019-05-06T10:05:50.112Z,18.74
2019-05-06T10:07:25.551Z,18.63
2019-05-06T10:09:04.843Z,18.52
2019-05-06T10:10:53.706Z,18.43
2019-05-06T10:12:17.470Z,18.33
2019-05-06T10:13:53.015Z,18.26
2019-05-06T10:15:29.510Z,18.23
2019-05-06T10:17:05.084Z,18.22
2019-05-06T10:18:40.849Z,18.23
2019-05-06T10:20:16.509Z,18.24
2019-05-06T10:21:53.063Z,18.27
2019-05-06T10:23:29.761Z,18.31
2019-05-06T10:25:06.226Z,18.37
2019-05-06T10:26:45.819Z,18.42
2019-05-06T10:28:39.287Z,18.49
2019-05-06T10:30:16.515Z,18.56
2019-05-06T10:31:56.670Z,18.62
2019-05-06T10:33:33.474Z,18.68
2019-05-06T10:35:09.482Z,18.81
2019-05-06T10:37:12.543Z,18.95
2019-05-06T10:38:52.876Z,19.07
2019-05-06T10:40:33.272Z,19.18
2019-05-06T10:42:13.647Z,19.27
2019-05-06T10:44:03.110Z,19.41
2019-05-06T10:45:38.719Z,19.59
2019-05-06T10:47:14.325Z,19.75
2019-05-06T10:48:50.092Z,19.84
2019-05-06T10:50:26.790Z,19.94
2019-05-06T10:52:16.107Z,20.04
2019-05-06T10:53:51.653Z,20.18
2019-05-06T10:55:27.374Z,20.24
2019-05-06T10:57:07.280Z,20.31
2019-05-06T10:58:44.044Z,20.35
2019-05-06T11:00:23.075Z,20.40
2019-05-06T11:02:05.071Z,20.44
2019-05-06T11:03:37.645Z,20.44
2019-05-06T11:05:13.838Z,20.37
2019-05-06T11:06:52.409Z,20.30
2019-05-06T11:08:27.073Z,20.21
2019-05-06T11:10:02.978Z,20.13
2019-05-06T11:11:39.017Z,20.07
2019-05-06T11:13:14.983Z,20.00
2019-05-06T11:14:55.288Z,19.93
2019-05-06T11:16:27.739Z,19.83
2019-05-06T11:18:04.723Z,19.69
2019-05-06T11:19:42.640Z,19.59
2019-05-06T11:21:17.716Z,19.53
2019-05-06T11:22:53.253Z,19.53
2019-05-06T11:24:28.757Z,19.57
2019-05-06T11:26:04.520Z,19.62
2019-05-06T11:27:44.309Z,19.67
2019-05-06T11:29:19.143Z,19.73
2019-05-06T11:30:57.165Z,19.75
2019-05-06T11:32:37.234Z,19.74
2019-05-06T11:34:22.228Z,19.71
2019-05-06T11:35:59.473Z,19.67
2019-05-06T11:37:49.036Z,19.71
2019-05-06T11:39:17.006Z,19.75
2019-05-06T11:40:53.195Z,19.82
2019-05-06T11:42:32.479Z,19.85
2019-05-06T11:44:09.391Z,19.91
2019-05-06T11:45:45.047Z,19.97
2019-05-06T11:47:23.067Z,20.04
2019-05-06T11:48:58.850Z,20.11
2019-05-06T11:50:34.361Z,20.20
2019-05-06T11:52:09.909Z,20.29
2019-05-06T11:53:45.481Z,20.38
2019-05-06T11:55:29.946Z,20.45
2019-05-06T11:56:58.716Z,20.54
2019-05-06T11:58:44.847Z,20.62
2019-05-06T12:00:23.914Z,20.75
2019-05-06T12:02:02.610Z,20.86
2019-05-06T12:03:39.544Z,20.92
2019-05-06T12:05:15.194Z,20.98
2019-05-06T12:06:52.594Z,21.10
2019-05-06T12:08:27.962Z,21.14
2019-05-06T12:10:04.406Z,21.17
2019-05-06T12:11:40.009Z,21.26
2019-05-06T12:13:15.965Z,21.43
2019-05-06T12:14:52.707Z,21.57
2019-05-06T12:16:28.586Z,21.61
2019-05-06T12:18:04.918Z,21.58
2019-05-06T12:19:40.515Z,21.52
2019-05-06T12:21:19.277Z,21.39
2019-05-06T12:22:53.987Z,21.22
2019-05-06T12:24:29.802Z,20.99
2019-05-06T12:26:05.333Z,20.78
2019-05-06T12:27:46.820Z,20.60
2019-05-06T12:29:22.596Z,20.40
2019-05-06T12:30:58.116Z,20.19
2019-05-06T12:32:35.267Z,19.99
2019-05-06T12:34:12.410Z,19.82
2019-05-06T12:35:48.123Z,19.65
2019-05-06T12:37:25.281Z,19.53
2019-05-06T12:39:18.110Z,19.42
2019-05-06T12:40:53.096Z,19.32
2019-05-06T12:42:32.978Z,19.17
2019-05-06T12:44:07.889Z,19.07
2019-05-06T12:45:45.055Z,18.96
2019-05-06T12:47:28.314Z,18.89
2019-05-06T12:49:04.089Z,18.83
2019-05-06T12:50:39.614Z,18.76
2019-05-06T12:52:15.141Z,18.72
2019-05-06T12:53:52.709Z,18.64
2019-05-06T12:55:28.047Z,18.58
2019-05-06T12:57:03.640Z,18.49
2019-05-06T12:58:39.214Z,18.41
2019-05-06T13:00:15.596Z,18.33
2019-05-06T13:01:53.825Z,18.27
2019-05-06T13:03:31.630Z,18.19
2019-05-06T13:05:07.533Z,18.13
2019-05-06T13:06:46.173Z,18.09
2019-05-06T13:08:22.576Z,18.07
2019-05-06T13:09:57.502Z,18.06
2019-05-06T13:11:33.032Z,18.05
2019-05-06T13:13:08.738Z,18.08
2019-05-06T13:14:44.252Z,18.16
2019-05-06T13:16:19.765Z,18.30
2019-05-06T13:17:57.675Z,18.47
2019-05-06T13:19:33.212Z,18.62
2019-05-06T13:21:12.723Z,18.72
2019-05-06T13:22:49.544Z,18.80
2019-05-06T13:24:26.722Z,18.88
2019-05-06T13:26:02.486Z,18.96
2019-05-06T13:27:42.877Z,19.04
2019-05-06T13:29:19.242Z,19.12
2019-05-06T13:30:55.732Z,19.18
2019-05-06T13:32:32.885Z,19.18
2019-05-06T13:34:10.222Z,19.16
2019-05-06T13:35:45.833Z,19.16
2019-05-06T13:37:22.843Z,19.18
2019-05-06T13:39:13.490Z,19.37
2019-05-06T13:40:51.282Z,19.57
2019-05-06T13:42:16.207Z,19.76
2019-05-06T13:44:05.706Z,19.89
2019-05-06T13:45:43.136Z,19.91
2019-05-06T13:47:36.924Z,19.89
2019-05-06T13:49:29.358Z,19.85
2019-05-06T13:51:06.522Z,19.78
2019-05-06T13:52:44.188Z,19.69
2019-05-06T13:54:22.160Z,19.63
2019-05-06T13:55:56.956Z,19.58
2019-05-06T13:57:32.498Z,19.56
2019-05-06T13:59:08.013Z,19.53
2019-05-06T14:00:43.905Z,19.45
2019-05-06T14:02:21.085Z,19.39
2019-05-06T14:03:56.622Z,19.36
2019-05-06T14:05:32.997Z,19.32
2019-05-06T14:07:08.689Z,19.34
2019-05-06T14:08:44.508Z,19.34
2019-05-06T14:10:22.058Z,19.34
2019-05-06T14:11:57.262Z,19.31
2019-05-06T14:13:32.907Z,19.28
2019-05-06T14:15:08.770Z,19.28
2019-05-06T14:16:44.292Z,19.27
2019-05-06T14:18:19.803Z,19.27
2019-05-06T14:19:55.341Z,19.28
2019-05-06T14:21:32.433Z,19.28
2019-05-06T14:23:10.004Z,19.29
2019-05-06T14:24:47.183Z,19.27
2019-05-06T14:26:34.066Z,19.23
2019-05-06T14:28:12.372Z,19.21
2019-05-06T14:29:49.427Z,19.14
2019-05-06T14:31:26.487Z,19.08
2019-05-06T14:33:03.317Z,19.04
2019-05-06T14:34:39.041Z,18.95
2019-05-06T14:36:14.567Z,18.89
2019-05-06T14:37:50.088Z,18.84
2019-05-06T14:39:47.355Z,18.80
2019-05-06T14:41:07.825Z,18.76
2019-05-06T14:42:42.354Z,18.72
2019-05-06T14:44:18.007Z,18.68
2019-05-06T14:45:53.524Z,18.65
2019-05-06T14:47:32.725Z,18.65
2019-05-06T14:49:07.907Z,18.66
2019-05-06T14:50:48.448Z,18.68
2019-05-06T14:52:22.617Z,18.70
2019-05-06T14:53:58.706Z,18.71
2019-05-06T14:55:35.834Z,18.71
2019-05-06T14:57:14.607Z,18.68
2019-05-06T14:59:06.082Z,18.67
2019-05-06T15:00:42.545Z,18.63
2019-05-06T15:02:25.351Z,18.56
2019-05-06T15:03:57.625Z,18.53
2019-05-06T15:05:36.086Z,18.50
2019-05-06T15:07:17.075Z,18.48
2019-05-06T15:08:57.899Z,18.47
2019-05-06T15:10:53.723Z,18.42
2019-05-06T15:12:33.113Z,18.34
2019-05-06T15:14:08.250Z,18.30
2019-05-06T15:15:43.788Z,18.28
2019-05-06T15:17:19.312Z,18.27
2019-05-06T15:18:54.835Z,18.27
2019-05-06T15:20:30.364Z,18.22
2019-05-06T15:22:06.122Z,18.18
2019-05-06T15:23:42.441Z,18.13
2019-05-06T15:25:18.156Z,18.07
2019-05-06T15:26:54.929Z,18.02
2019-05-06T15:28:30.461Z,17.98
2019-05-06T15:30:12.285Z,17.94
2019-05-06T15:31:48.719Z,17.90
2019-05-06T15:33:25.884Z,17.83
2019-05-06T15:35:16.147Z,17.80
2019-05-06T15:36:57.574Z,17.76
2019-05-06T15:38:33.193Z,17.72
2019-05-06T15:40:09.623Z,17.71
2019-05-06T15:41:45.170Z,17.68
2019-05-06T15:43:22.041Z,17.67
2019-05-06T15:44:57.589Z,17.66
2019-05-06T15:46:34.126Z,17.65
2019-05-06T15:48:09.679Z,17.64
2019-05-06T15:49:45.382Z,17.65
2019-05-06T15:51:22.554Z,17.64
2019-05-06T15:52:58.073Z,17.64
2019-05-06T15:54:33.597Z,17.63
2019-05-06T15:56:09.219Z,17.62
2019-05-06T15:57:44.872Z,17.63
2019-05-06T15:59:22.773Z,17.63
2019-05-06T16:00:57.598Z,17.62
2019-05-06T16:02:34.299Z,17.62
2019-05-06T16:04:12.221Z,17.59
2019-05-06T16:05:47.812Z,17.59
2019-05-06T16:07:26.123Z,17.58
2019-05-06T16:09:03.636Z,17.59
2019-05-06T16:10:52.013Z,17.56
2019-05-06T16:12:17.868Z,17.52
2019-05-06T16:13:53.529Z,17.50
2019-05-06T16:15:29.092Z,17.48
2019-05-06T16:17:04.817Z,17.46
2019-05-06T16:18:42.291Z,17.44
2019-05-06T16:20:18.047Z,17.41
2019-05-06T16:21:53.632Z,17.40
2019-05-06T16:23:33.861Z,17.39
2019-05-06T16:25:15.033Z,17.36
2019-05-06T16:26:52.753Z,17.31
2019-05-06T16:28:28.078Z,17.27
2019-05-06T16:30:04.942Z,17.25
2019-05-06T16:31:42.247Z,17.22
2019-05-06T16:33:19.086Z,17.20
2019-05-06T16:34:54.704Z,17.17
2019-05-06T16:36:32.429Z,17.14
2019-05-06T16:38:07.556Z,17.11
2019-05-06T16:39:43.081Z,17.08
2019-05-06T16:41:19.577Z,17.04
2019-05-06T16:42:55.138Z,17.00
2019-05-06T16:44:31.167Z,16.96
2019-05-06T16:46:06.770Z,16.93
2019-05-06T16:47:44.699Z,16.89
2019-05-06T16:49:19.749Z,16.86
2019-05-06T16:50:55.274Z,16.83
2019-05-06T16:52:33.196Z,16.80
2019-05-06T16:54:08.053Z,16.75
2019-05-06T16:56:02.263Z,16.72
2019-05-06T16:57:37.903Z,16.66
2019-05-06T16:59:13.404Z,16.60
2019-05-06T17:00:48.932Z,16.57
2019-05-06T17:02:26.699Z,16.54
2019-05-06T17:04:14.645Z,16.51
2019-05-06T17:06:07.724Z,16.50
2019-05-06T17:07:45.131Z,16.47
2019-05-06T17:09:24.438Z,16.43
2019-05-06T17:10:57.714Z,16.40
2019-05-06T17:12:35.391Z,16.39
2019-05-06T17:14:12.265Z,16.37
2019-05-06T17:15:49.918Z,16.36
2019-05-06T17:17:38.900Z,16.35
2019-05-06T17:19:03.402Z,16.35
2019-05-06T17:20:39.001Z,16.34
2019-05-06T17:22:14.521Z,16.34
2019-05-06T17:23:52.083Z,16.34
2019-05-06T17:25:27.336Z,16.34
2019-05-06T17:27:02.911Z,16.31
2019-05-06T17:28:43.363Z,16.28
2019-05-06T17:30:33.269Z,16.27
2019-05-06T17:32:13.386Z,16.24
2019-05-06T17:33:56.202Z,16.20
2019-05-06T17:35:32.793Z,16.18
2019-05-06T17:37:12.361Z,16.13
2019-05-06T17:38:52.559Z,16.08
2019-05-06T17:40:28.103Z,16.03
2019-05-06T17:42:03.974Z,15.98
2019-05-06T17:43:41.068Z,15.95
2019-05-06T17:45:36.684Z,15.91
2019-05-06T17:47:22.934Z,15.87
2019-05-06T17:49:02.240Z,15.81
2019-05-06T17:50:37.354Z,15.74
2019-05-06T17:52:14.522Z,15.71
2019-05-06T17:53:54.161Z,15.69
2019-05-06T17:55:29.683Z,15.65
2019-05-06T17:57:06.428Z,15.61
2019-05-06T17:58:42.402Z,15.57
2019-05-06T18:00:19.037Z,15.54
2019-05-06T18:01:56.267Z,15.50
2019-05-06T18:03:32.592Z,15.46
2019-05-06T18:05:08.433Z,15.43
2019-05-06T18:06:44.013Z,15.39
2019-05-06T18:08:19.777Z,15.36
2019-05-06T18:09:55.318Z,15.32
2019-05-06T18:11:33.259Z,15.27
2019-05-06T18:13:08.024Z,15.25
2019-05-06T18:14:43.758Z,15.21
2019-05-06T18:16:19.496Z,15.18
2019-05-06T18:17:55.411Z,15.16
2019-05-06T18:19:33.215Z,15.11
2019-05-06T18:21:08.205Z,15.08
2019-05-06T18:22:43.748Z,15.04
2019-05-06T18:24:19.276Z,15.00
2019-05-06T18:25:54.798Z,14.97
2019-05-06T18:27:32.562Z,14.93
2019-05-06T18:29:07.557Z,14.89
2019-05-06T18:30:44.703Z,14.85
2019-05-06T18:32:20.483Z,14.81
2019-05-06T18:33:56.063Z,14.77
2019-05-06T18:35:32.126Z,14.72
2019-05-06T18:37:07.273Z,14.67
2019-05-06T18:38:42.995Z,14.64
2019-05-06T18:40:18.522Z,14.59
2019-05-06T18:41:54.059Z,14.54
2019-05-06T18:43:29.578Z,14.49
2019-05-06T18:45:06.146Z,14.43
2019-05-06T18:46:42.142Z,14.40
2019-05-06T18:48:17.767Z,14.36
2019-05-06T18:49:53.306Z,14.31
2019-05-06T18:51:28.845Z,14.27
2019-05-06T18:53:04.478Z,14.23
2019-05-06T18:54:40.016Z,14.19
2019-05-06T18:56:15.530Z,14.15
2019-05-06T18:57:52.788Z,14.11
2019-05-06T18:59:28.437Z,14.06
2019-05-06T19:01:04.348Z,14.01
2019-05-06T19:02:42.166Z,13.96
2019-05-06T19:04:27.165Z,13.91
2019-05-06T19:06:03.211Z,13.86
2019-05-06T19:07:38.799Z,13.79
2019-05-06T19:09:24.681Z,13.76
2019-05-06T19:11:02.331Z,13.73
2019-05-06T19:12:41.263Z,13.67
2019-05-06T19:14:15.214Z,13.65
2019-05-06T19:15:52.642Z,13.60
2019-05-06T19:17:27.969Z,13.55
2019-05-06T19:19:05.824Z,13.53
2019-05-06T19:20:43.295Z,13.49
2019-05-06T19:22:18.796Z,13.45
2019-05-06T19:23:54.931Z,13.42
2019-05-06T19:25:33.955Z,13.37
2019-05-06T19:27:08.127Z,13.33
2019-05-06T19:28:43.657Z,13.28
2019-05-06T19:30:22.322Z,13.24
2019-05-06T19:31:57.647Z,13.19
2019-05-06T19:33:34.862Z,13.13
2019-05-06T19:35:13.042Z,13.10
2019-05-06T19:36:48.021Z,13.04
2019-05-06T19:38:24.452Z,13.00
2019-05-06T19:40:00.064Z,12.95
2019-05-06T19:41:35.603Z,12.92
2019-05-06T19:43:12.353Z,12.88
2019-05-06T19:44:47.945Z,12.85
2019-05-06T19:46:23.459Z,12.81
2019-05-06T19:47:58.992Z,12.77
2019-05-06T19:49:36.583Z,12.74
2019-05-06T19:51:11.788Z,12.70
2019-05-06T19:52:47.299Z,12.67
2019-05-06T19:54:22.814Z,12.63
2019-05-06T19:55:58.341Z,12.60
2019-05-06T19:57:33.851Z,12.56
2019-05-06T19:59:10.357Z,12.52
2019-05-06T20:00:47.181Z,12.48
2019-05-06T20:02:25.680Z,12.44
2019-05-06T20:04:02.303Z,12.39
2019-05-06T20:05:41.542Z,12.33
2019-05-06T20:07:26.916Z,12.28
2019-05-06T20:09:19.235Z,12.22
2019-05-06T20:11:04.825Z,12.15
2019-05-06T20:12:58.423Z,12.07
2019-05-06T20:14:22.156Z,12.02
2019-05-06T20:15:57.689Z,11.98
2019-05-06T20:17:33.204Z,11.95
2019-05-06T20:19:09.022Z,11.93
2019-05-06T20:20:44.547Z,11.90
2019-05-06T20:22:20.083Z,11.89
2019-05-06T20:23:55.719Z,11.86
2019-05-06T20:25:31.256Z,11.84
2019-05-06T20:27:06.777Z,11.80
2019-05-06T20:28:42.940Z,11.78
2019-05-06T20:30:19.044Z,11.75
2019-05-06T20:31:54.559Z,11.72
2019-05-06T20:33:32.515Z,11.69
2019-05-06T20:35:09.185Z,11.66
2019-05-06T20:36:44.956Z,11.61
2019-05-06T20:38:23.270Z,11.57
2019-05-06T20:39:59.189Z,11.54
2019-05-06T20:41:34.993Z,11.52
2019-05-06T20:43:17.472Z,11.48
2019-05-06T20:44:48.037Z,11.47
2019-05-06T20:46:24.062Z,11.42
2019-05-06T20:48:03.248Z,11.40
2019-05-06T20:49:39.054Z,11.39
2019-05-06T20:51:14.573Z,11.36
2019-05-06T20:52:52.112Z,11.33
2019-05-06T20:54:27.988Z,11.31
2019-05-06T20:56:03.556Z,11.27
2019-05-06T20:57:39.194Z,11.25
2019-05-06T20:59:14.720Z,11.23
2019-05-06T21:00:52.164Z,11.20
2019-05-06T21:02:27.909Z,11.19
2019-05-06T21:04:03.430Z,11.14
2019-05-06T21:05:39.274Z,11.13
2019-05-06T21:07:16.390Z,11.13
2019-05-06T21:08:53.007Z,11.11
2019-05-06T21:10:32.879Z,11.10